Time,TemperatureF,DewpointF,PressureIn,WindDirection,WindDirectionDegrees,WindSpeedMPH,WindSpeedGustMPH,Humidity,HourlyPrecipIn,Conditions,Clouds,dailyrainin,SoftwareType,DateUTC
2013-02-10 00:00:00,13.3,2.7,30.23,South,187,1.0,1.0,62,0.00,,,0.00,Wunderground v.1.15,2013-02-10 05:00:00,
2013-02-10 00:05:00,14.1,3.5,30.23,South,187,3.0,3.0,62,0.00,,,0.00,Wunderground v.1.15,2013-02-10 05:05:00,
2013-02-10 00:15:00,12.5,2.3,30.23,SSE,162,2.0,4.0,63,0.00,,,0.00,Wunderground v.1.15,2013-02-10 05:15:00,
2013-02-10 00:20:00,12.2,2.7,30.23,SSW,195,2.0,2.0,65,0.00,,,0.00,Wunderground v.1.15,2013-02-10 05:20:00,
2013-02-10 00:25:00,12.1,2.6,30.24,NE,36,2.0,3.0,65,0.00,,,0.00,Wunderground v.1.15,2013-02-10 05:25:00,
2013-02-10 00:30:00,12.6,3.1,30.23,SSE,166,2.0,4.0,65,0.00,,,0.00,Wunderground v.1.15,2013-02-10 05:30:00,
2013-02-10 00:35:00,12.7,3.1,30.23,SE,138,2.0,4.0,65,0.00,,,0.00,Wunderground v.1.15,2013-02-10 05:35:00,
2013-02-10 00:45:00,12.9,3.0,30.24,SSW,210,2.0,5.0,64,0.00,,,0.00,Wunderground v.1.15,2013-02-10 05:45:00,
2013-02-10 00:50:00,12.8,2.9,30.24,SSW,202,1.0,1.0,64,0.00,,,0.00,Wunderground v.1.15,2013-02-10 05:50:00,
2013-02-10 01:00:00,12.7,2.8,30.24,WNW,295,2.0,2.0,64,0.00,,,0.00,Wunderground v.1.15,2013-02-10 06:00:00,
2013-02-10 01:05:00,12.6,2.4,30.24,NNW,347,1.0,3.0,63,0.00,,,0.00,Wunderground v.1.15,2013-02-10 06:05:00,
2013-02-10 01:15:00,12.6,2.4,30.24,WNW,287,2.0,2.0,63,0.00,,,0.00,Wunderground v.1.15,2013-02-10 06:15:00,
2013-02-10 01:20:00,12.5,2.6,30.24,SSW,202,1.0,5.0,64,0.00,,,0.00,Wunderground v.1.15,2013-02-10 06:20:00,
2013-02-10 01:30:00,12.2,2.3,30.24,SW,217,2.0,2.0,64,0.00,,,0.00,Wunderground v.1.15,2013-02-10 06:30:00,
2013-02-10 01:35:00,12.2,2.0,30.24,North,5,2.0,2.0,63,0.00,,,0.00,Wunderground v.1.15,2013-02-10 06:35:00,
2013-02-10 01:45:00,12.5,2.3,30.24,NNE,29,3.0,10.0,63,0.00,,,0.00,Wunderground v.1.15,2013-02-10 06:45:00,
2013-02-10 01:50:00,12.5,1.9,30.25,NE,40,3.0,3.0,62,0.00,,,0.00,Wunderground v.1.15,2013-02-10 06:50:00,
2013-02-10 01:55:00,12.5,1.9,30.25,North,349,4.0,6.0,62,0.00,,,0.00,Wunderground v.1.15,2013-02-10 06:55:00,
2013-02-10 02:05:00,12.6,1.7,30.25,North,355,4.0,5.0,61,0.00,,,0.00,Wunderground v.1.15,2013-02-10 07:05:00,
2013-02-10 02:15:00,12.4,1.5,30.25,WNW,286,3.0,3.0,61,0.00,,,0.00,Wunderground v.1.15,2013-02-10 07:15:00,
2013-02-10 02:20:00,12.2,1.7,30.25,North,5,2.0,2.0,62,0.00,,,0.00,Wunderground v.1.15,2013-02-10 07:20:00,
2013-02-10 02:25:00,12.3,1.4,30.25,NNW,344,2.0,2.0,61,0.00,,,0.00,Wunderground v.1.15,2013-02-10 07:25:00,
2013-02-10 02:35:00,12.3,1.4,30.25,NNE,14,3.0,6.0,61,0.00,,,0.00,Wunderground v.1.15,2013-02-10 07:35:00,
2013-02-10 02:40:00,12.2,1.3,30.26,NE,38,4.0,4.0,61,0.00,,,0.00,Wunderground v.1.15,2013-02-10 07:40:00,
2013-02-10 02:50:00,12.0,1.1,30.26,NNW,348,2.0,2.0,61,0.00,,,0.00,Wunderground v.1.15,2013-02-10 07:50:00,
2013-02-10 02:55:00,12.0,1.1,30.27,NNW,341,2.0,2.0,61,0.00,,,0.00,Wunderground v.1.15,2013-02-10 07:55:00,
2013-02-10 03:05:00,12.1,1.2,30.26,NNW,344,3.0,3.0,61,0.00,,,0.00,Wunderground v.1.15,2013-02-10 08:05:00,
2013-02-10 03:15:00,11.9,1.0,30.27,North,5,3.0,6.0,61,0.00,,,0.00,Wunderground v.1.15,2013-02-10 08:15:00,
2013-02-10 03:20:00,11.8,0.9,30.27,NNW,338,5.0,6.0,61,0.00,,,0.00,Wunderground v.1.15,2013-02-10 08:20:00,
2013-02-10 03:25:00,11.8,0.9,30.27,North,360,6.0,6.0,61,0.00,,,0.00,Wunderground v.1.15,2013-02-10 08:25:00,
2013-02-10 03:35:00,11.6,1.1,30.28,NW,307,5.0,10.0,62,0.00,,,0.00,Wunderground v.1.15,2013-02-10 08:35:00,
2013-02-10 03:40:00,11.4,0.9,30.28,NNE,28,4.0,5.0,62,0.00,,,0.00,Wunderground v.1.15,2013-02-10 08:40:00,
2013-02-10 03:50:00,11.3,0.8,30.29,NE,44,3.0,3.0,62,0.00,,,0.00,Wunderground v.1.15,2013-02-10 08:50:00,
2013-02-10 03:55:00,11.4,0.9,30.29,NNE,30,3.0,3.0,62,0.00,,,0.00,Wunderground v.1.15,2013-02-10 08:55:00,
2013-02-10 04:00:00,11.2,0.7,30.29,NW,305,2.0,2.0,62,0.00,,,0.00,Wunderground v.1.15,2013-02-10 09:00:00,
2013-02-10 04:05:00,11.0,0.9,30.30,NW,313,2.0,4.0,63,0.00,,,0.00,Wunderground v.1.15,2013-02-10 09:05:00,
2013-02-10 04:15:00,10.5,0.7,30.30,ENE,66,0.0,1.0,64,0.00,,,0.00,Wunderground v.1.15,2013-02-10 09:15:00,
2013-02-10 04:20:00,10.5,0.4,30.30,North,355,1.0,1.0,63,0.00,,,0.00,Wunderground v.1.15,2013-02-10 09:20:00,
2013-02-10 04:25:00,10.4,0.3,30.31,ENE,63,2.0,2.0,63,0.00,,,0.00,Wunderground v.1.15,2013-02-10 09:25:00,
2013-02-10 04:30:00,10.4,0.6,30.31,WNW,290,1.0,2.0,64,0.00,,,0.00,Wunderground v.1.15,2013-02-10 09:30:00,
2013-02-10 04:40:00,10.5,0.4,30.32,North,355,1.0,1.0,63,0.00,,,0.00,Wunderground v.1.15,2013-02-10 09:40:00,
2013-02-10 04:45:00,10.4,0.3,30.32,NNE,13,1.0,1.0,63,0.00,,,0.00,Wunderground v.1.15,2013-02-10 09:45:00,
2013-02-10 04:55:00,10.2,0.1,30.33,NNW,348,0.0,1.0,63,0.00,,,0.00,Wunderground v.1.15,2013-02-10 09:55:00,
2013-02-10 05:00:00,10.0,-0.1,30.33,NNW,348,0.0,0.0,63,0.00,,,0.00,Wunderground v.1.15,2013-02-10 10:00:00,
2013-02-10 05:10:00,10.1,0.0,30.33,NNW,336,1.0,1.0,63,0.00,,,0.00,Wunderground v.1.15,2013-02-10 10:10:00,
2013-02-10 05:15:00,10.0,-0.1,30.33,NNE,30,0.0,1.0,63,0.00,,,0.00,Wunderground v.1.15,2013-02-10 10:15:00,
2013-02-10 05:25:00,10.0,-0.1,30.33,NW,312,0.0,2.0,63,0.00,,,0.00,Wunderground v.1.15,2013-02-10 10:25:00,
2013-02-10 05:30:00,9.9,-0.2,30.33,NW,321,1.0,2.0,63,0.00,,,0.00,Wunderground v.1.15,2013-02-10 10:30:00,
2013-02-10 05:40:00,10.0,-0.1,30.34,North,355,0.0,0.0,63,0.00,,,0.00,Wunderground v.1.15,2013-02-10 10:40:00,
2013-02-10 05:45:00,10.1,0.0,30.35,North,355,0.0,3.0,63,0.00,,,0.00,Wunderground v.1.15,2013-02-10 10:45:00,
2013-02-10 05:50:00,10.2,-0.2,30.35,NNW,338,1.0,1.0,62,0.00,,,0.00,Wunderground v.1.15,2013-02-10 10:50:00,
2013-02-10 06:00:00,10.1,0.0,30.34,West,273,1.0,2.0,63,0.00,,,0.00,Wunderground v.1.15,2013-02-10 11:00:00,
2013-02-10 06:05:00,10.0,-0.1,30.34,NW,304,1.0,2.0,63,0.00,,,0.00,Wunderground v.1.15,2013-02-10 11:05:00,
2013-02-10 06:15:00,10.1,0.0,30.34,SSE,155,1.0,1.0,63,0.00,,,0.00,Wunderground v.1.15,2013-02-10 11:15:00,
2013-02-10 06:25:00,9.9,-0.2,30.35,SSW,203,1.0,1.0,63,0.00,,,0.00,Wunderground v.1.15,2013-02-10 11:25:00,
2013-02-10 06:30:00,9.8,-0.3,30.36,SW,222,0.0,0.0,63,0.00,,,0.00,Wunderground v.1.15,2013-02-10 11:30:00,
2013-02-10 06:35:00,9.5,-0.2,30.36,SSW,194,1.0,1.0,64,0.00,,,0.00,Wunderground v.1.15,2013-02-10 11:35:00,
2013-02-10 06:45:00,9.1,-0.6,30.36,South,170,1.0,1.0,64,0.00,,,0.00,Wunderground v.1.15,2013-02-10 11:45:00,
2013-02-10 06:55:00,8.9,-0.5,30.36,SW,217,0.0,0.0,65,0.00,,,0.00,Wunderground v.1.15,2013-02-10 11:55:00,
2013-02-10 07:00:00,8.3,-1.1,30.36,SW,217,0.0,0.0,65,0.00,,,0.00,Wunderground v.1.15,2013-02-10 12:00:00,
2013-02-10 07:05:00,7.9,-1.1,30.37,SW,217,0.0,0.0,66,0.00,,,0.00,Wunderground v.1.15,2013-02-10 12:05:00,
2013-02-10 07:15:00,7.4,-1.3,30.37,SW,217,0.0,0.0,67,0.00,,,0.00,Wunderground v.1.15,2013-02-10 12:15:00,
2013-02-10 07:20:00,7.2,-1.5,30.37,SW,217,0.0,0.0,67,0.00,,,0.00,Wunderground v.1.15,2013-02-10 12:20:00,
2013-02-10 07:30:00,6.4,-1.9,30.39,SW,217,0.0,1.0,68,0.00,,,0.00,Wunderground v.1.15,2013-02-10 12:30:00,
2013-02-10 07:35:00,6.3,-1.7,30.39,SW,218,0.0,1.0,69,0.00,,,0.00,Wunderground v.1.15,2013-02-10 12:35:00,
2013-02-10 07:45:00,7.4,-0.6,30.40,SW,217,0.0,0.0,69,0.00,,,0.00,Wunderground v.1.15,2013-02-10 12:45:00,
2013-02-10 07:50:00,8.8,-0.3,30.39,NW,320,0.0,0.0,66,0.00,,,0.00,Wunderground v.1.15,2013-02-10 12:50:00,
2013-02-10 08:00:00,11.5,0.6,30.40,South,171,1.0,1.0,61,0.00,,,0.00,Wunderground v.1.15,2013-02-10 13:00:00,
2013-02-10 08:05:00,12.3,1.0,30.40,South,186,1.0,2.0,60,0.00,,,0.00,Wunderground v.1.15,2013-02-10 13:05:00,
2013-02-10 08:15:00,13.2,0.4,30.41,SW,236,1.0,1.0,56,0.00,,,0.00,Wunderground v.1.15,2013-02-10 13:15:00,
2013-02-10 08:20:00,13.7,0.9,30.41,WSW,243,1.0,1.0,56,0.00,,,0.00,Wunderground v.1.15,2013-02-10 13:20:00,
2013-02-10 08:30:00,14.5,0.5,30.40,NNW,334,2.0,7.0,53,0.00,,,0.00,Wunderground v.1.15,2013-02-10 13:30:00,
2013-02-10 08:35:00,15.0,1.3,30.40,NNE,16,2.0,7.0,54,0.00,,,0.00,Wunderground v.1.15,2013-02-10 13:35:00,
2013-02-10 08:45:00,15.7,0.7,30.40,NW,323,2.0,2.0,51,0.00,,,0.00,Wunderground v.1.15,2013-02-10 13:45:00,
2013-02-10 08:50:00,16.0,1.4,30.40,SSW,196,2.0,2.0,52,0.00,,,0.00,Wunderground v.1.15,2013-02-10 13:50:00,
2013-02-10 09:00:00,17.1,1.2,30.41,WNW,303,1.0,1.0,49,0.00,,,0.00,Wunderground v.1.15,2013-02-10 14:00:00,
2013-02-10 09:05:00,17.7,2.2,30.41,WSW,256,1.0,1.0,50,0.00,,,0.00,Wunderground v.1.15,2013-02-10 14:05:00,
2013-02-10 09:15:00,18.0,1.6,30.41,SW,214,2.0,4.0,48,0.00,,,0.00,Wunderground v.1.15,2013-02-10 14:15:00,
2013-02-10 09:20:00,18.4,1.5,30.41,NE,35,1.0,2.0,47,0.00,,,0.00,Wunderground v.1.15,2013-02-10 14:20:00,
2013-02-10 09:30:00,18.8,1.4,30.41,NNW,342,2.0,2.0,46,0.00,,,0.00,Wunderground v.1.15,2013-02-10 14:30:00,
2013-02-10 09:40:00,19.2,1.3,30.42,NNW,345,3.0,4.0,45,0.00,,,0.00,Wunderground v.1.15,2013-02-10 14:40:00,
2013-02-10 09:45:00,19.6,1.7,30.42,WNW,302,3.0,4.0,45,0.00,,,0.00,Wunderground v.1.15,2013-02-10 14:45:00,
2013-02-10 09:50:00,19.7,1.8,30.42,West,269,3.0,3.0,45,0.00,,,0.00,Wunderground v.1.15,2013-02-10 14:50:00,
2013-02-10 10:00:00,20.4,1.9,30.42,SSW,201,3.0,3.0,44,0.00,,,0.01,Wunderground v.1.15,2013-02-10 15:00:00,
2013-02-10 10:05:00,20.8,2.8,30.42,North,360,2.0,3.0,45,0.00,,,0.01,Wunderground v.1.15,2013-02-10 15:05:00,
2013-02-10 10:15:00,21.1,2.1,30.42,NNW,348,3.0,3.0,43,0.04,,,0.02,Wunderground v.1.15,2013-02-10 15:15:00,
2013-02-10 10:20:00,21.2,2.6,30.42,NW,322,4.0,4.0,44,0.04,,,0.02,Wunderground v.1.15,2013-02-10 15:20:00,
2013-02-10 10:30:00,21.6,2.5,30.42,West,276,2.0,2.0,43,0.04,,,0.03,Wunderground v.1.15,2013-02-10 15:30:00,
2013-02-10 10:40:00,22.2,2.6,30.42,NE,40,2.0,2.0,42,0.04,,,0.03,Wunderground v.1.15,2013-02-10 15:40:00,
2013-02-10 10:45:00,22.5,3.3,30.42,North,360,2.0,3.0,43,0.00,,,0.03,Wunderground v.1.15,2013-02-10 15:45:00,
2013-02-10 10:55:00,23.2,2.9,30.43,NW,314,1.0,3.0,41,0.00,,,0.03,Wunderground v.1.15,2013-02-10 15:55:00,
2013-02-10 11:00:00,23.4,3.1,30.43,NW,304,2.0,2.0,41,0.00,,,0.04,Wunderground v.1.15,2013-02-10 16:00:00,
2013-02-10 11:05:00,23.6,3.3,30.43,NNE,28,3.0,3.0,41,0.00,,,0.04,Wunderground v.1.15,2013-02-10 16:05:00,
2013-02-10 11:15:00,23.9,3.0,30.43,WNW,289,3.0,4.0,40,0.00,,,0.04,Wunderground v.1.15,2013-02-10 16:15:00,
2013-02-10 11:25:00,24.4,2.9,30.43,NNW,341,3.0,4.0,39,0.00,,,0.05,Wunderground v.1.15,2013-02-10 16:25:00,
2013-02-10 11:30:00,24.8,4.4,30.43,NE,36,2.0,2.0,41,0.00,,,0.05,Wunderground v.1.15,2013-02-10 16:30:00,
2013-02-10 11:40:00,25.2,3.1,30.42,NW,307,3.0,3.0,38,0.00,,,0.06,Wunderground v.1.15,2013-02-10 16:40:00,
2013-02-10 11:45:00,25.3,3.2,30.42,NNE,28,4.0,4.0,38,0.00,,,0.06,Wunderground v.1.15,2013-02-10 16:45:00,
2013-02-10 11:55:00,25.7,3.6,30.42,ENE,74,3.0,4.0,38,0.00,,,0.06,Wunderground v.1.15,2013-02-10 16:55:00,
2013-02-10 12:00:00,26.2,4.0,30.41,NNE,17,2.0,2.0,38,0.00,,,0.06,Wunderground v.1.15,2013-02-10 17:00:00,
2013-02-10 12:05:00,26.2,3.4,30.41,North,360,2.0,4.0,37,0.00,,,0.07,Wunderground v.1.15,2013-02-10 17:05:00,
2013-02-10 12:15:00,26.6,4.4,30.41,NNW,337,3.0,4.0,38,0.00,,,0.07,Wunderground v.1.15,2013-02-10 17:15:00,
2013-02-10 12:20:00,26.7,3.9,30.41,NNW,336,4.0,7.0,37,0.04,,,0.08,Wunderground v.1.15,2013-02-10 17:20:00,
2013-02-10 12:30:00,27.1,4.2,30.41,NNW,342,2.0,2.0,37,0.04,,,0.08,Wunderground v.1.15,2013-02-10 17:30:00,
2013-02-10 12:35:00,27.5,4.6,30.40,WNW,294,1.0,2.0,37,0.00,,,0.08,Wunderground v.1.15,2013-02-10 17:35:00,
2013-02-10 12:40:00,28.1,4.5,30.40,ENE,65,1.0,1.0,36,0.00,,,0.08,Wunderground v.1.15,2013-02-10 17:40:00,
2013-02-10 12:50:00,28.5,5.5,30.39,North,5,2.0,2.0,37,0.00,,,0.09,Wunderground v.1.15,2013-02-10 17:50:00,
2013-02-10 12:55:00,28.8,6.9,30.39,North,360,1.0,3.0,39,0.05,,,0.10,Wunderground v.1.15,2013-02-10 17:55:00,
2013-02-10 13:05:00,28.9,5.2,30.38,NNE,20,4.0,4.0,36,0.04,,,0.10,Wunderground v.1.15,2013-02-10 18:05:00,
2013-02-10 13:15:00,28.8,5.2,30.37,NW,306,5.0,7.0,36,0.00,,,0.11,Wunderground v.1.15,2013-02-10 18:15:00,
2013-02-10 13:20:00,29.0,5.3,30.37,NNW,341,4.0,4.0,36,0.00,,,0.11,Wunderground v.1.15,2013-02-10 18:20:00,
2013-02-10 13:30:00,29.6,5.9,30.37,North,355,3.0,7.0,36,0.04,,,0.12,Wunderground v.1.15,2013-02-10 18:30:00,
2013-02-10 13:35:00,29.7,6.6,30.36,WNW,292,3.0,7.0,37,0.04,,,0.12,Wunderground v.1.15,2013-02-10 18:35:00,
2013-02-10 13:40:00,30.0,6.2,30.36,NNW,342,3.0,3.0,36,0.04,,,0.12,Wunderground v.1.15,2013-02-10 18:40:00,
2013-02-10 13:50:00,30.2,7.0,30.36,North,349,4.0,4.0,37,0.00,,,0.13,Wunderground v.1.15,2013-02-10 18:50:00,
2013-02-10 13:55:00,30.3,6.5,30.36,NW,325,4.0,4.0,36,0.00,,,0.13,Wunderground v.1.15,2013-02-10 18:55:00,
2013-02-10 14:05:00,30.1,6.3,30.36,NNW,329,5.0,8.0,36,0.04,,,0.14,Wunderground v.1.15,2013-02-10 19:05:00,
2013-02-10 14:15:00,30.7,7.5,30.35,ENE,65,3.0,5.0,37,0.04,,,0.14,Wunderground v.1.15,2013-02-10 19:15:00,
2013-02-10 14:20:00,31.0,7.1,30.35,NNE,12,3.0,3.0,36,0.00,,,0.14,Wunderground v.1.15,2013-02-10 19:20:00,
2013-02-10 14:25:00,31.1,6.6,30.35,WNW,303,3.0,5.0,35,0.00,,,0.14,Wunderground v.1.15,2013-02-10 19:25:00,
2013-02-10 14:35:00,31.2,6.0,30.35,NNW,342,3.0,3.0,34,0.00,,,0.15,Wunderground v.1.15,2013-02-10 19:35:00,
2013-02-10 14:40:00,31.3,6.1,30.35,SW,216,3.0,5.0,34,0.00,,,0.15,Wunderground v.1.15,2013-02-10 19:40:00,
2013-02-10 14:50:00,31.7,6.5,30.35,NNW,336,2.0,5.0,34,0.00,,,0.16,Wunderground v.1.15,2013-02-10 19:50:00,
2013-02-10 14:55:00,31.6,5.7,30.35,NE,46,3.0,5.0,33,0.00,,,0.16,Wunderground v.1.15,2013-02-10 19:55:00,
2013-02-10 15:05:00,31.7,5.2,30.35,WNW,295,2.0,3.0,32,0.00,,,0.16,Wunderground v.1.15,2013-02-10 20:05:00,
2013-02-10 15:15:00,31.6,5.1,30.35,NNW,339,3.0,7.0,32,0.00,,,0.16,Wunderground v.1.15,2013-02-10 20:15:00,
2013-02-10 15:20:00,31.5,5.7,30.36,NNW,330,4.0,4.0,33,0.00,,,0.17,Wunderground v.1.15,2013-02-10 20:20:00,
2013-02-10 15:30:00,31.5,5.7,30.36,NNW,338,2.0,2.0,33,0.00,,,0.17,Wunderground v.1.15,2013-02-10 20:30:00,
2013-02-10 15:35:00,31.6,5.7,30.37,NNW,336,1.0,2.0,33,0.00,,,0.17,Wunderground v.1.15,2013-02-10 20:35:00,
2013-02-10 15:40:00,31.7,5.2,30.37,NNW,345,2.0,2.0,32,0.00,,,0.17,Wunderground v.1.15,2013-02-10 20:40:00,
2013-02-10 15:50:00,31.5,5.0,30.37,North,360,1.0,1.0,32,0.00,,,0.17,Wunderground v.1.15,2013-02-10 20:50:00,
2013-02-10 15:55:00,31.5,5.7,30.36,North,360,0.0,1.0,33,0.00,,,0.17,Wunderground v.1.15,2013-02-10 20:55:00,
2013-02-10 16:05:00,30.4,6.0,30.37,North,5,0.0,1.0,35,0.00,,,0.18,Wunderground v.1.15,2013-02-10 21:05:00,
2013-02-10 16:15:00,29.8,5.4,30.37,WNW,292,1.0,2.0,35,0.00,,,0.18,Wunderground v.1.15,2013-02-10 21:15:00,
2013-02-10 16:20:00,29.9,4.9,30.36,ENE,72,1.0,1.0,34,0.00,,,0.18,Wunderground v.1.15,2013-02-10 21:20:00,
2013-02-10 16:25:00,29.7,6.0,30.37,ENE,72,1.0,1.0,36,0.00,,,0.18,Wunderground v.1.15,2013-02-10 21:25:00,
2013-02-10 16:35:00,29.1,5.4,30.36,ENE,72,0.0,0.0,36,0.00,,,0.18,Wunderground v.1.15,2013-02-10 21:35:00,
2013-02-10 16:40:00,29.0,4.7,30.36,ENE,72,0.0,0.0,35,0.00,,,0.18,Wunderground v.1.15,2013-02-10 21:40:00,
2013-02-10 16:45:00,28.8,5.8,30.36,ENE,72,0.0,0.0,37,0.00,,,0.18,Wunderground v.1.15,2013-02-10 21:45:00,
2013-02-10 16:55:00,28.1,6.8,30.36,ENE,72,0.0,0.0,40,0.00,,,0.18,Wunderground v.1.15,2013-02-10 21:55:00,
2013-02-10 17:00:00,27.7,6.5,30.35,ENE,72,0.0,0.0,40,0.00,,,0.18,Wunderground v.1.15,2013-02-10 22:00:00,
2013-02-10 17:05:00,27.2,5.5,30.35,NW,320,0.0,1.0,39,0.00,,,0.18,Wunderground v.1.15,2013-02-10 22:05:00,
2013-02-10 17:15:00,28.2,4.6,30.36,NW,325,1.0,2.0,36,0.00,,,0.18,Wunderground v.1.15,2013-02-10 22:15:00,
2013-02-10 17:20:00,28.1,6.3,30.37,NW,324,1.0,1.0,39,0.00,,,0.18,Wunderground v.1.15,2013-02-10 22:20:00,
2013-02-10 17:25:00,27.6,5.8,30.37,NW,323,0.0,1.0,39,0.00,,,0.18,Wunderground v.1.15,2013-02-10 22:25:00,
2013-02-10 17:30:00,27.2,5.5,30.38,NW,324,0.0,0.0,39,0.00,,,0.18,Wunderground v.1.15,2013-02-10 22:30:00,
2013-02-10 17:40:00,26.3,7.3,30.37,NW,324,0.0,0.0,44,0.00,,,0.18,Wunderground v.1.15,2013-02-10 22:40:00,
2013-02-10 17:45:00,25.4,6.5,30.37,NW,324,0.0,0.0,44,0.00,,,0.18,Wunderground v.1.15,2013-02-10 22:45:00,
2013-02-10 17:55:00,23.4,6.6,30.37,NW,324,0.0,0.0,48,0.00,,,0.18,Wunderground v.1.15,2013-02-10 22:55:00,
2013-02-10 18:00:00,22.6,6.7,30.36,NW,323,0.0,0.0,50,0.00,,,0.18,Wunderground v.1.15,2013-02-10 23:00:00,
2013-02-10 18:05:00,21.8,7.7,30.36,NW,324,0.0,0.0,54,0.00,,,0.18,Wunderground v.1.15,2013-02-10 23:05:00,
2013-02-10 18:15:00,20.6,7.0,30.35,NW,323,0.0,0.0,55,0.00,,,0.18,Wunderground v.1.15,2013-02-10 23:15:00,
2013-02-10 18:25:00,19.5,7.1,30.36,NW,324,0.0,0.0,58,0.00,,,0.18,Wunderground v.1.15,2013-02-10 23:25:00,
2013-02-10 18:30:00,19.1,7.1,30.36,NW,324,0.0,0.0,59,0.00,,,0.18,Wunderground v.1.15,2013-02-10 23:30:00,
2013-02-10 18:35:00,18.7,7.1,30.35,NW,324,0.0,0.0,60,0.00,,,0.18,Wunderground v.1.15,2013-02-10 23:35:00,
2013-02-10 18:45:00,17.9,7.4,30.36,NW,323,0.0,0.0,63,0.00,,,0.18,Wunderground v.1.15,2013-02-10 23:45:00,
2013-02-10 18:50:00,17.9,7.4,30.36,NW,323,0.0,0.0,63,0.00,,,0.18,Wunderground v.1.15,2013-02-10 23:50:00,
2013-02-10 19:00:00,17.2,7.1,30.36,NW,323,0.0,0.0,64,0.00,,,0.18,Wunderground v.1.15,2013-02-11 00:00:00,
2013-02-10 19:05:00,16.4,6.3,30.36,NW,324,0.0,0.0,64,0.00,,,0.18,Wunderground v.1.15,2013-02-11 00:05:00,
2013-02-10 19:15:00,15.3,7.3,30.36,NW,324,0.0,0.0,70,0.00,,,0.18,Wunderground v.1.15,2013-02-11 00:15:00,
2013-02-10 19:20:00,15.2,7.2,30.36,NW,324,0.0,0.0,70,0.00,,,0.18,Wunderground v.1.15,2013-02-11 00:20:00,
2013-02-10 19:30:00,14.4,6.7,30.37,NW,324,0.0,0.0,71,0.00,,,0.18,Wunderground v.1.15,2013-02-11 00:30:00,
2013-02-10 19:35:00,14.0,6.6,30.37,NW,324,0.0,0.0,72,0.00,,,0.18,Wunderground v.1.15,2013-02-11 00:35:00,
2013-02-10 19:45:00,13.9,7.4,30.37,NW,324,0.0,0.0,75,0.00,,,0.18,Wunderground v.1.15,2013-02-11 00:45:00,
2013-02-10 19:50:00,13.9,7.4,30.37,NW,324,0.0,0.0,75,0.00,,,0.18,Wunderground v.1.15,2013-02-11 00:50:00,
2013-02-10 20:00:00,13.5,7.0,30.36,NW,323,0.0,0.0,75,0.00,,,0.18,Wunderground v.1.15,2013-02-11 01:00:00,
2013-02-10 20:05:00,13.3,6.9,30.36,NW,324,0.0,0.0,75,0.00,,,0.18,Wunderground v.1.15,2013-02-11 01:05:00,
2013-02-10 20:15:00,12.8,6.7,30.36,NW,323,0.0,0.0,76,0.00,,,0.18,Wunderground v.1.15,2013-02-11 01:15:00,
2013-02-10 20:20:00,12.5,6.7,30.36,NW,323,0.0,0.0,77,0.00,,,0.18,Wunderground v.1.15,2013-02-11 01:20:00,
2013-02-10 20:30:00,12.2,6.7,30.36,NW,323,0.0,0.0,78,0.00,,,0.18,Wunderground v.1.15,2013-02-11 01:30:00,
2013-02-10 20:35:00,12.0,6.7,30.35,NW,324,0.0,0.0,79,0.00,,,0.18,Wunderground v.1.15,2013-02-11 01:35:00,
2013-02-10 20:45:00,11.3,6.1,30.35,NW,324,0.0,0.0,79,0.00,,,0.18,Wunderground v.1.15,2013-02-11 01:45:00,
2013-02-10 20:50:00,11.2,6.2,30.35,NW,324,0.0,0.0,80,0.00,,,0.18,Wunderground v.1.15,2013-02-11 01:50:00,
2013-02-10 21:00:00,10.4,5.7,30.36,NW,324,0.0,0.0,81,0.00,,,0.18,Wunderground v.1.15,2013-02-11 02:00:00,
2013-02-10 21:05:00,10.2,5.8,30.36,NW,324,0.0,0.0,82,0.00,,,0.18,Wunderground v.1.15,2013-02-11 02:05:00,
2013-02-10 21:15:00,10.0,5.6,30.36,NW,323,0.0,0.0,82,0.00,,,0.18,Wunderground v.1.15,2013-02-11 02:15:00,
2013-02-10 21:20:00,10.0,5.9,30.35,NW,323,0.0,0.0,83,0.00,,,0.18,Wunderground v.1.15,2013-02-11 02:20:00,
2013-02-10 21:30:00,9.5,5.1,30.36,NW,323,0.0,0.0,82,0.00,,,0.18,Wunderground v.1.15,2013-02-11 02:30:00,
2013-02-10 21:35:00,9.3,4.9,30.35,NW,324,0.0,0.0,82,0.00,,,0.18,Wunderground v.1.15,2013-02-11 02:35:00,
2013-02-10 21:45:00,8.9,4.8,30.35,NW,323,0.0,0.0,83,0.00,,,0.18,Wunderground v.1.15,2013-02-11 02:45:00,
2013-02-10 21:50:00,8.9,5.1,30.35,NW,324,0.0,0.0,84,0.00,,,0.18,Wunderground v.1.15,2013-02-11 02:50:00,
2013-02-10 22:00:00,8.1,4.0,30.35,NW,324,0.0,0.0,83,0.00,,,0.18,Wunderground v.1.15,2013-02-11 03:00:00,
2013-02-10 22:05:00,7.9,4.1,30.35,NW,324,0.0,0.0,84,0.00,,,0.18,Wunderground v.1.15,2013-02-11 03:05:00,
2013-02-10 22:15:00,7.8,4.2,30.35,NW,323,0.0,0.0,85,0.00,,,0.18,Wunderground v.1.15,2013-02-11 03:15:00,
2013-02-10 22:20:00,7.9,4.6,30.36,NW,323,0.0,0.0,86,0.00,,,0.18,Wunderground v.1.15,2013-02-11 03:20:00,
2013-02-10 22:30:00,7.7,4.1,30.35,NW,324,0.0,0.0,85,0.00,,,0.18,Wunderground v.1.15,2013-02-11 03:30:00,
2013-02-10 22:35:00,7.3,3.5,30.35,NW,324,0.0,0.0,84,0.00,,,0.18,Wunderground v.1.15,2013-02-11 03:35:00,
2013-02-10 22:40:00,7.1,3.3,30.35,NW,324,0.0,0.0,84,0.00,,,0.18,Wunderground v.1.15,2013-02-11 03:40:00,
2013-02-10 22:50:00,6.8,3.2,30.35,NW,324,0.0,0.0,85,0.00,,,0.18,Wunderground v.1.15,2013-02-11 03:50:00,
2013-02-10 22:55:00,6.7,3.1,30.35,NW,324,0.0,0.0,85,0.00,,,0.18,Wunderground v.1.15,2013-02-11 03:55:00,
2013-02-10 23:05:00,6.4,3.1,30.35,NW,324,0.0,0.0,86,0.00,,,0.18,Wunderground v.1.15,2013-02-11 04:05:00,
2013-02-10 23:15:00,6.1,2.8,30.35,NW,324,0.0,0.0,86,0.00,,,0.18,Wunderground v.1.15,2013-02-11 04:15:00,
2013-02-10 23:25:00,5.9,2.6,30.35,NW,324,0.0,0.0,86,0.00,,,0.18,Wunderground v.1.15,2013-02-11 04:25:00,
2013-02-10 23:35:00,5.1,1.6,30.35,NW,324,0.0,0.0,85,0.00,,,0.18,Wunderground v.1.15,2013-02-11 04:35:00,
2013-02-10 23:40:00,4.7,1.4,30.36,NW,323,0.0,0.0,86,0.00,,,0.18,Wunderground v.1.15,2013-02-11 04:40:00,
2013-02-10 23:50:00,4.8,2.0,30.35,NW,323,0.0,0.0,88,0.00,,,0.18,Wunderground v.1.15,2013-02-11 04:50:00,
2013-02-10 23:55:00,4.8,1.8,30.35,NW,324,0.0,0.0,87,0.00,,,0.18,Wunderground v.1.15,2013-02-11 04:55:00,